Time;durP1;ratioP1;P1;durP2;ratioP2;P2;SDS_P1;SDS_P2;PMS_P1;PMS_P2;Temp;Humidity;BMP_temperature;BMP_pressure;BME280_temperature;BME280_humidity;BME280_pressure;Samples;Min_cycle;Max_cycle;Signal;HPM_P1;HPM_P2
2023/09/07 00:00:14;;;;;;;11.93;5.63;;;21.00;99.90;;;;;;4757257;30;20060;-72
2023/09/07 00:02:40;;;;;;;8.80;4.90;;;21.00;99.90;;;;;;4757140;30;20472;-72
2023/09/07 00:05:07;;;;;;;10.18;5.18;;;20.90;99.90;;;;;;4756788;30;20485;-72
2023/09/07 00:07:33;;;;;;;7.30;5.63;;;20.90;99.90;;;;;;4757098;30;20417;-72
2023/09/07 00:10:03;;;;;;;8.52;5.50;;;20.90;99.90;;;;;;4756518;30;20566;-72
2023/09/07 00:12:28;;;;;;;7.88;5.60;;;20.90;99.90;;;;;;4757057;30;20060;-72
2023/09/07 00:14:54;;;;;;;9.73;5.10;;;20.80;99.90;;;;;;4757064;30;20539;-73
2023/09/07 00:17:21;;;;;;;9.40;5.68;;;20.90;99.90;;;;;;4772579;30;20481;-74
2023/09/07 00:19:49;;;;;;;7.88;5.25;;;20.80;99.90;;;;;;4756561;30;20052;-73
2023/09/07 00:22:15;;;;;;;7.10;4.82;;;20.80;99.90;;;;;;4756860;30;20071;-74
2023/09/07 00:24:40;;;;;;;9.60;5.40;;;20.80;99.90;;;;;;4772670;30;20040;-73
2023/09/07 00:27:07;;;;;;;9.30;4.82;;;20.70;99.90;;;;;;4772553;30;20082;-74
2023/09/07 00:29:35;;;;;;;7.22;4.90;;;20.60;99.90;;;;;;4772433;30;20126;-73
2023/09/07 00:32:00;;;;;;;10.05;5.60;;;20.60;99.90;;;;;;4772497;30;20052;-74
2023/09/07 00:34:26;;;;;;;12.05;5.70;;;20.60;99.90;;;;;;4772357;30;20058;-73
2023/09/07 00:36:52;;;;;;;9.40;5.60;;;20.50;99.90;;;;;;4756333;30;20139;-73
2023/09/07 00:39:17;;;;;;;9.18;5.68;;;20.50;99.90;;;;;;4756679;30;20047;-73
2023/09/07 00:41:43;;;;;;;8.90;6.13;;;20.40;99.90;;;;;;4756536;30;20051;-73
2023/09/07 00:44:08;;;;;;;7.63;6.32;;;20.40;99.90;;;;;;4772136;30;20048;-73
2023/09/07 00:46:34;;;;;;;8.27;6.20;;;20.40;99.90;;;;;;4756181;30;20135;-73
2023/09/07 00:49:00;;;;;;;8.95;5.95;;;20.40;99.90;;;;;;4756099;30;20052;-73
2023/09/07 00:51:26;;;;;;;11.07;6.18;;;20.30;99.90;;;;;;4756021;30;20056;-73
2023/09/07 00:53:53;;;;;;;9.57;5.90;;;20.30;99.90;;;;;;4772100;30;20050;-73
2023/09/07 00:56:19;;;;;;;9.02;5.90;;;20.30;99.90;;;;;;4756096;30;20126;-73
2023/09/07 00:58:44;;;;;;;9.43;5.78;;;20.20;99.90;;;;;;4755899;30;20150;-73
2023/09/07 01:01:10;;;;;;;11.38;6.05;;;20.20;99.90;;;;;;4756177;30;20139;-73
2023/09/07 01:03:36;;;;;;;14.35;6.55;;;20.10;99.90;;;;;;4755907;30;20119;-74
2023/09/07 01:06:15;;;;;;;7.93;6.32;;;20.10;99.90;;;;;;4755885;30;20087;-73
2023/09/07 01:08:51;;;;;;;14.77;6.45;;;20.10;99.90;;;;;;4755854;30;20056;-73
2023/09/07 01:11:20;;;;;;;11.50;5.97;;;20.00;99.90;;;;;;4771466;30;20062;-73
2023/09/07 01:13:46;;;;;;;11.68;6.38;;;20.00;99.90;;;;;;4755689;30;20059;-73
2023/09/07 01:16:12;;;;;;;8.73;6.43;;;19.90;99.90;;;;;;4755957;30;20048;-73
2023/09/07 01:18:39;;;;;;;9.38;6.40;;;19.90;99.90;;;;;;4771681;30;20051;-73
2023/09/07 01:21:10;;;;;;;10.38;6.60;;;19.80;99.90;;;;;;4755971;30;20083;-73
2023/09/07 01:23:37;;;;;;;9.02;6.43;;;19.80;99.90;;;;;;4755907;30;20063;-73
2023/09/07 01:26:03;;;;;;;9.05;6.53;;;19.70;99.90;;;;;;4755388;30;20476;-73
2023/09/07 01:28:29;;;;;;;10.30;6.25;;;19.70;99.90;;;;;;4755766;30;20047;-73
2023/09/07 01:30:55;;;;;;;8.85;6.10;;;19.70;99.90;;;;;;4755333;30;20459;-73
2023/09/07 01:33:20;;;;;;;12.60;6.43;;;19.60;99.90;;;;;;4755738;30;20043;-73
2023/09/07 01:35:46;;;;;;;10.63;6.05;;;19.60;99.90;;;;;;4755638;30;20466;-73
2023/09/07 01:38:12;;;;;;;8.73;6.00;;;19.50;99.90;;;;;;4755631;30;20051;-73
2023/09/07 01:40:37;;;;;;;10.63;6.20;;;19.50;99.90;;;;;;4755501;30;20106;-73
2023/09/07 01:43:03;;;;;;;15.57;6.65;;;19.40;99.90;;;;;;4771398;30;20043;-73
2023/09/07 01:45:29;;;;;;;12.13;7.00;;;19.30;99.90;;;;;;4771343;30;20412;-73
2023/09/07 01:47:54;;;;;;;10.00;7.00;;;19.30;99.90;;;;;;4771300;30;20054;-73
2023/09/07 01:50:20;;;;;;;12.50;7.90;;;19.30;99.90;;;;;;4755346;30;20401;-73
2023/09/07 01:52:48;;;;;;;10.60;7.22;;;19.20;99.90;;;;;;4755536;30;20051;-73
2023/09/07 01:55:14;;;;;;;11.27;7.88;;;19.20;99.90;;;;;;4755241;30;20055;-73
2023/09/07 01:57:40;;;;;;;12.23;8.40;;;19.20;99.90;;;;;;4771108;30;20048;-73
2023/09/07 02:00:06;;;;;;;12.05;8.95;;;19.10;99.90;;;;;;4755254;30;20575;-73
2023/09/07 02:02:32;;;;;;;12.13;7.88;;;19.10;99.90;;;;;;4755053;30;20051;-73
2023/09/07 02:04:58;;;;;;;12.48;8.45;;;19.10;99.90;;;;;;4754833;30;20130;-73
2023/09/07 02:07:24;;;;;;;10.27;8.68;;;19.10;99.90;;;;;;4770687;30;20575;-73
2023/09/07 02:09:49;;;;;;;11.65;7.93;;;19.00;99.90;;;;;;4754672;30;20517;-73
2023/09/07 02:12:15;;;;;;;10.02;7.95;;;19.00;99.90;;;;;;4770931;30;20083;-73
2023/09/07 02:14:41;;;;;;;10.70;8.18;;;18.90;99.90;;;;;;4754976;30;20157;-73
2023/09/07 02:17:06;;;;;;;11.07;9.40;;;18.90;99.90;;;;;;4770813;30;20131;-73
2023/09/07 02:19:32;;;;;;;14.65;8.55;;;18.90;99.90;;;;;;4770828;30;20127;-73
2023/09/07 02:21:58;;;;;;;11.20;9.43;;;18.90;99.90;;;;;;4754680;30;20136;-73
2023/09/07 02:24:23;;;;;;;14.35;8.68;;;18.90;99.90;;;;;;4754884;30;20090;-73
2023/09/07 02:26:50;;;;;;;12.82;9.57;;;18.80;99.90;;;;;;4754700;30;20489;-73
2023/09/07 02:29:16;;;;;;;13.00;8.68;;;18.80;99.90;;;;;;4754873;30;20121;-73
2023/09/07 02:31:41;;;;;;;13.48;9.40;;;18.80;99.90;;;;;;4770752;30;20051;-73
2023/09/07 02:34:07;;;;;;;12.55;9.10;;;18.80;99.90;;;;;;4754959;30;20054;-73
2023/09/07 02:36:35;;;;;;;12.75;8.77;;;18.80;99.90;;;;;;4755007;30;20070;-73
2023/09/07 02:39:01;;;;;;;13.25;9.18;;;18.80;99.90;;;;;;4754800;30;20079;-73
2023/09/07 02:41:27;;;;;;;11.05;8.93;;;18.80;99.90;;;;;;4770603;30;20098;-73
2023/09/07 02:43:52;;;;;;;12.40;9.65;;;18.70;99.90;;;;;;4754844;30;20078;-73
2023/09/07 02:46:18;;;;;;;15.48;9.25;;;18.70;99.90;;;;;;4754714;30;20074;-73
2023/09/07 02:48:44;;;;;;;14.20;8.88;;;18.70;99.90;;;;;;4754775;30;20052;-73
2023/09/07 02:51:09;;;;;;;13.05;9.30;;;18.70;99.90;;;;;;4754572;30;20131;-73
2023/09/07 02:53:35;;;;;;;16.00;9.52;;;18.60;99.90;;;;;;4754479;30;20051;-73
2023/09/07 02:56:04;;;;;;;11.20;8.65;;;18.60;99.90;;;;;;4770579;30;20058;-73
2023/09/07 02:58:30;;;;;;;15.25;9.35;;;18.60;99.90;;;;;;4754638;30;20061;-73
2023/09/07 03:00:56;;;;;;;10.63;8.60;;;18.60;99.90;;;;;;4754453;30;20059;-73
2023/09/07 03:03:21;;;;;;;11.95;9.27;;;18.60;99.90;;;;;;4754466;30;20052;-73
2023/09/07 03:05:47;;;;;;;14.10;9.48;;;18.60;99.90;;;;;;4754510;30;20105;-73
2023/09/07 03:08:13;;;;;;;14.93;9.00;;;18.50;99.90;;;;;;4754292;30;20048;-73
2023/09/07 03:10:39;;;;;;;16.92;8.40;;;18.50;99.90;;;;;;4770118;30;20120;-73
2023/09/07 03:13:06;;;;;;;11.02;8.98;;;18.50;99.90;;;;;;4770375;30;20048;-73
2023/09/07 03:15:32;;;;;;;11.98;9.20;;;18.50;99.90;;;;;;4770238;30;20055;-73
2023/09/07 03:17:58;;;;;;;14.80;8.68;;;18.50;99.90;;;;;;4756216;30;20390;-73
2023/09/07 03:20:23;;;;;;;11.95;8.95;;;18.50;99.90;;;;;;4773520;30;20134;-73
2023/09/07 03:22:49;;;;;;;12.55;8.50;;;18.40;99.90;;;;;;4773735;30;20060;-73
2023/09/07 03:25:15;;;;;;;12.23;9.13;;;18.40;99.90;;;;;;4757722;30;20044;-73
2023/09/07 03:27:41;;;;;;;11.65;9.02;;;18.30;99.90;;;;;;4757504;30;20382;-73
2023/09/07 03:30:07;;;;;;;15.07;9.98;;;18.30;99.90;;;;;;4757718;30;20055;-73
2023/09/07 03:32:33;;;;;;;10.15;8.48;;;18.30;99.90;;;;;;4749565;30;20127;-73
2023/09/07 03:35:08;;;;;;;13.68;9.68;;;18.30;99.90;;;;;;4755766;30;20485;-73
2023/09/07 03:37:34;;;;;;;12.98;9.35;;;18.30;99.90;;;;;;4739885;30;20520;-73
2023/09/07 03:40:00;;;;;;;11.18;9.05;;;18.20;99.90;;;;;;4739884;30;20063;-73
2023/09/07 03:42:27;;;;;;;12.98;9.88;;;18.20;99.90;;;;;;4740149;30;20059;-73
2023/09/07 03:44:53;;;;;;;14.63;8.88;;;18.20;99.90;;;;;;4739701;30;20064;-73
2023/09/07 03:47:18;;;;;;;12.50;8.75;;;18.10;99.90;;;;;;4739596;30;20056;-73
2023/09/07 03:49:44;;;;;;;11.57;9.18;;;18.10;99.90;;;;;;4739356;30;20052;-73
2023/09/07 03:52:10;;;;;;;14.02;9.80;;;18.10;99.90;;;;;;4755480;30;20048;-73
2023/09/07 03:54:35;;;;;;;12.20;9.73;;;18.00;99.90;;;;;;4755860;30;20051;-73
2023/09/07 03:57:02;;;;;;;13.80;9.82;;;18.00;99.90;;;;;;4739404;30;20055;-73
2023/09/07 03:59:28;;;;;;;12.75;9.90;;;18.10;99.90;;;;;;4755283;30;20106;-73
2023/09/07 04:01:54;;;;;;;16.65;9.85;;;18.00;99.90;;;;;;4739638;30;20059;-73
2023/09/07 04:04:20;;;;;;;11.73;9.00;;;18.00;99.90;;;;;;4739247;30;20052;-73
2023/09/07 04:06:49;;;;;;;12.15;9.18;;;18.00;99.90;;;;;;4755197;30;20102;-73
2023/09/07 04:09:15;;;;;;;12.75;9.50;;;18.00;99.90;;;;;;4739133;30;20378;-73
2023/09/07 04:11:43;;;;;;;13.70;9.65;;;18.00;99.90;;;;;;4754873;30;20524;-73
2023/09/07 04:14:08;;;;;;;11.82;9.73;;;18.00;99.90;;;;;;4754879;30;20055;-73
2023/09/07 04:16:34;;;;;;;15.38;10.50;;;17.90;99.90;;;;;;4739112;30;20060;-73
2023/09/07 04:19:00;;;;;;;13.20;9.90;;;17.90;99.90;;;;;;4755227;30;20143;-73
2023/09/07 04:21:25;;;;;;;11.40;9.57;;;17.90;99.90;;;;;;4739236;30;20056;-73
2023/09/07 04:23:51;;;;;;;11.93;9.57;;;17.90;99.90;;;;;;4738969;30;20052;-73
2023/09/07 04:26:16;;;;;;;12.43;8.98;;;17.90;99.90;;;;;;4755133;30;20139;-73
2023/09/07 04:28:42;;;;;;;12.32;9.43;;;17.90;99.90;;;;;;4738474;30;20409;-73
2023/09/07 04:31:08;;;;;;;11.93;9.35;;;18.00;99.90;;;;;;4738875;30;20068;-73
2023/09/07 04:33:34;;;;;;;12.60;8.45;;;18.00;99.90;;;;;;4738756;30;20056;-73
2023/09/07 04:36:13;;;;;;;14.30;9.48;;;18.00;99.90;;;;;;4738717;30;20497;-73
2023/09/07 04:38:40;;;;;;;16.73;9.65;;;18.00;99.90;;;;;;4754639;30;20098;-73
2023/09/07 04:41:10;;;;;;;13.75;9.65;;;18.00;99.90;;;;;;4754600;30;20048;-73
2023/09/07 04:43:37;;;;;;;12.23;8.45;;;18.00;99.90;;;;;;4738491;30;20048;-73
2023/09/07 04:46:03;;;;;;;14.00;9.48;;;18.00;99.90;;;;;;4738094;30;20048;-73
2023/09/07 04:48:29;;;;;;;11.80;8.75;;;18.00;99.90;;;;;;4737122;30;20051;-73
2023/09/07 04:51:06;;;;;;;12.95;8.73;;;18.00;99.90;;;;;;4737607;30;20063;-74
2023/09/07 04:53:34;;;;;;;13.30;8.95;;;18.00;99.90;;;;;;4754143;30;20455;-73
2023/09/07 04:56:00;;;;;;;11.52;8.25;;;18.00;99.90;;;;;;4738585;30;20052;-73
2023/09/07 04:58:26;;;;;;;13.93;8.02;;;18.00;99.90;;;;;;4738147;30;20064;-73
2023/09/07 05:00:52;;;;;;;12.25;8.23;;;18.00;99.90;;;;;;4754243;30;20056;-73
2023/09/07 05:03:18;;;;;;;12.75;8.68;;;18.10;99.90;;;;;;4754198;30;20037;-73
2023/09/07 05:05:45;;;;;;;12.93;8.68;;;18.10;99.90;;;;;;4738251;30;20101;-73
2023/09/07 05:08:10;;;;;;;16.45;8.48;;;18.10;99.90;;;;;;4738201;30;20052;-73
2023/09/07 05:10:38;;;;;;;12.32;8.77;;;18.10;99.90;;;;;;4753540;30;20548;-73
2023/09/07 05:13:04;;;;;;;10.77;8.57;;;18.10;99.90;;;;;;4737864;30;20413;-73
2023/09/07 05:15:30;;;;;;;10.38;8.38;;;18.10;99.90;;;;;;4738140;30;20485;-73
2023/09/07 05:17:55;;;;;;;14.70;8.43;;;18.10;99.90;;;;;;4737867;30;20055;-73
2023/09/07 05:20:22;;;;;;;13.60;8.80;;;18.20;99.90;;;;;;4738085;30;20048;-73
2023/09/07 05:22:47;;;;;;;14.40;10.05;;;18.20;99.90;;;;;;4738027;30;20148;-73
2023/09/07 05:25:13;;;;;;;15.02;10.18;;;18.20;99.90;;;;;;4737964;30;20506;-74
2023/09/07 05:27:39;;;;;;;14.50;9.63;;;18.20;99.90;;;;;;4753598;30;20559;-74
2023/09/07 05:30:06;;;;;;;14.38;10.48;;;18.20;99.90;;;;;;4753635;30;20482;-74
2023/09/07 05:32:32;;;;;;;12.32;10.43;;;18.20;99.90;;;;;;4737630;30;20064;-74
2023/09/07 05:34:57;;;;;;;11.57;10.38;;;18.30;99.90;;;;;;4737811;30;20044;-74
2023/09/07 05:37:23;;;;;;;11.23;9.48;;;18.30;99.90;;;;;;4753295;30;20096;-74
2023/09/07 05:39:49;;;;;;;13.95;10.32;;;18.30;99.90;;;;;;4736776;30;20549;-74
2023/09/07 05:42:15;;;;;;;13.32;10.90;;;18.30;99.90;;;;;;4737872;30;20064;-74
2023/09/07 05:44:41;;;;;;;17.23;10.98;;;18.30;99.90;;;;;;4737667;30;20048;-74
2023/09/07 05:47:06;;;;;;;14.38;10.15;;;18.40;99.90;;;;;;4737350;30;20429;-74
2023/09/07 05:49:32;;;;;;;15.07;11.88;;;18.40;99.90;;;;;;4737599;30;20087;-74
2023/09/07 05:51:58;;;;;;;14.80;10.70;;;18.40;99.90;;;;;;4737233;30;20138;-74
2023/09/07 05:54:23;;;;;;;14.45;10.45;;;18.50;99.90;;;;;;4737275;30;20055;-74
2023/09/07 05:56:49;;;;;;;16.58;11.40;;;18.50;99.90;;;;;;4737287;30;20085;-74
2023/09/07 05:59:15;;;;;;;13.63;10.10;;;18.60;99.90;;;;;;4737607;30;20056;-73
2023/09/07 06:01:41;;;;;;;17.50;11.00;;;18.60;99.90;;;;;;4737469;30;20048;-74
2023/09/07 06:04:07;;;;;;;15.15;10.93;;;18.70;99.90;;;;;;4737194;30;20124;-74
2023/09/07 06:06:32;;;;;;;14.75;11.18;;;18.80;99.90;;;;;;4753134;30;20053;-74
2023/09/07 06:08:59;;;;;;;13.48;10.98;;;18.80;99.90;;;;;;4736983;30;20059;-74
2023/09/07 06:11:25;;;;;;;13.40;10.32;;;18.80;99.90;;;;;;4736930;30;20084;-74
2023/09/07 06:13:51;;;;;;;17.15;11.02;;;18.90;99.90;;;;;;4752057;30;20131;-73
2023/09/07 06:16:17;;;;;;;15.40;11.30;;;19.00;99.90;;;;;;4726813;30;20143;-73
2023/09/07 06:18:43;;;;;;;15.93;11.27;;;19.00;99.90;;;;;;4736920;30;20055;-74
2023/09/07 06:21:09;;;;;;;17.00;11.32;;;19.10;99.90;;;;;;4736762;30;20056;-74
2023/09/07 06:23:34;;;;;;;15.70;11.43;;;19.20;99.90;;;;;;4752540;30;20052;-75
2023/09/07 06:26:00;;;;;;;14.77;10.63;;;19.30;99.90;;;;;;4752588;30;20066;-75
2023/09/07 06:28:27;;;;;;;15.40;11.45;;;19.30;99.90;;;;;;4736774;30;20044;-75
2023/09/07 06:30:52;;;;;;;14.90;11.18;;;19.40;99.90;;;;;;4752501;30;20055;-75
2023/09/07 06:33:21;;;;;;;17.77;10.93;;;19.50;99.90;;;;;;4736732;30;20131;-74
2023/09/07 06:35:47;;;;;;;14.38;11.50;;;19.50;99.90;;;;;;4736680;30;20059;-74
2023/09/07 06:38:12;;;;;;;16.25;12.00;;;19.50;99.90;;;;;;4736500;30;20048;-75
2023/09/07 06:40:38;;;;;;;15.00;11.18;;;19.50;99.90;;;;;;4736632;30;20501;-75
2023/09/07 06:43:05;;;;;;;16.88;11.65;;;19.50;99.90;;;;;;4736644;30;20048;-74
2023/09/07 06:45:35;;;;;;;13.18;11.18;;;19.70;99.90;;;;;;4736536;30;20552;-75
2023/09/07 06:48:02;;;;;;;14.40;11.60;;;19.70;99.90;;;;;;4752430;30;20063;-74
2023/09/07 06:50:28;;;;;;;14.02;11.23;;;19.80;99.90;;;;;;4752280;30;20075;-75
2023/09/07 06:52:53;;;;;;;13.18;10.80;;;19.80;99.90;;;;;;4739645;30;20425;-74
2023/09/07 06:55:20;;;;;;;14.52;11.93;;;19.90;99.90;;;;;;4740352;30;20098;-74
2023/09/07 06:57:45;;;;;;;13.48;11.52;;;20.00;99.90;;;;;;4755879;30;20416;-74
2023/09/07 07:00:12;;;;;;;18.50;11.93;;;20.10;99.90;;;;;;4755944;30;20134;-75
2023/09/07 07:02:38;;;;;;;15.80;10.93;;;20.20;99.90;;;;;;4755934;30;20047;-75
2023/09/07 07:05:04;;;;;;;12.90;10.35;;;20.20;99.90;;;;;;4740039;30;20072;-75
2023/09/07 07:07:32;;;;;;;15.15;9.85;;;20.20;99.90;;;;;;4739809;30;20094;-75
2023/09/07 07:09:59;;;;;;;13.30;10.93;;;20.30;99.90;;;;;;4739759;30;20151;-75
2023/09/07 07:12:26;;;;;;;12.23;9.80;;;20.40;99.90;;;;;;4755884;30;20056;-74
2023/09/07 07:14:52;;;;;;;14.23;10.25;;;20.40;99.90;;;;;;4739731;30;20488;-74
2023/09/07 07:17:17;;;;;;;13.85;10.32;;;20.40;99.90;;;;;;4755609;30;20130;-74
2023/09/07 07:19:43;;;;;;;14.50;10.02;;;20.50;99.90;;;;;;4755770;30;20040;-74
2023/09/07 07:22:08;;;;;;;13.27;9.68;;;20.70;99.90;;;;;;4739631;30;20056;-73
2023/09/07 07:24:34;;;;;;;14.13;9.52;;;20.70;99.90;;;;;;4755478;30;20052;-73
2023/09/07 07:27:00;;;;;;;14.18;9.73;;;20.80;99.90;;;;;;4739575;30;20486;-74
2023/09/07 07:29:28;;;;;;;11.57;8.98;;;20.80;99.90;;;;;;4739770;30;20088;-74
2023/09/07 07:31:54;;;;;;;14.00;8.52;;;20.80;99.90;;;;;;4737231;30;20057;-74
2023/09/07 07:34:20;;;;;;;11.48;8.73;;;20.90;99.90;;;;;;4739528;30;20052;-74
2023/09/07 07:36:45;;;;;;;14.68;8.75;;;21.10;99.90;;;;;;4755445;30;20052;-74
2023/09/07 07:39:11;;;;;;;9.77;7.53;;;21.20;99.90;;;;;;4739632;30;20060;-74
2023/09/07 07:41:38;;;;;;;12.43;7.97;;;21.30;99.90;;;;;;4739556;30;20064;-74
2023/09/07 07:44:03;;;;;;;12.00;8.13;;;21.40;99.90;;;;;;4755356;30;20052;-74
2023/09/07 07:46:29;;;;;;;13.18;7.95;;;21.60;99.90;;;;;;4739245;30;20112;-74
2023/09/07 07:48:55;;;;;;;10.63;7.43;;;21.70;99.90;;;;;;4739097;30;20106;-73
2023/09/07 07:51:20;;;;;;;10.88;7.13;;;21.80;99.90;;;;;;4739248;30;20055;-73
2023/09/07 07:53:46;;;;;;;13.63;7.80;;;21.90;99.90;;;;;;4739149;30;20446;-73
2023/09/07 07:56:16;;;;;;;16.42;7.72;;;22.00;99.90;;;;;;4738931;30;20052;-75
2023/09/07 07:58:42;;;;;;;10.68;7.03;;;22.10;99.90;;;;;;4738972;30;20501;-73
2023/09/07 08:01:18;;;;;;;11.52;7.65;;;22.20;99.90;;;;;;4755108;30;20052;-76
2023/09/07 08:03:44;;;;;;;9.77;6.68;;;22.30;99.90;;;;;;4754071;30;20047;-72
2023/09/07 08:06:11;;;;;;;9.57;6.88;;;22.40;99.90;;;;;;4738974;30;20075;-72
2023/09/07 08:08:37;;;;;;;9.30;7.20;;;22.50;99.90;;;;;;4738813;30;20136;-73
2023/09/07 08:11:05;;;;;;;12.43;7.35;;;22.60;99.90;;;;;;4754491;30;20493;-73
2023/09/07 08:13:35;;;;;;;11.38;6.93;;;22.70;99.90;;;;;;4737761;30;20091;-73
2023/09/07 08:16:02;;;;;;;10.50;7.00;;;22.80;99.90;;;;;;4739139;30;20067;-73
2023/09/07 08:18:28;;;;;;;13.05;7.22;;;22.80;99.90;;;;;;4738992;30;20056;-74
2023/09/07 08:20:55;;;;;;;9.32;6.40;;;22.90;99.90;;;;;;4738868;30;20070;-73
2023/09/07 08:23:23;;;;;;;11.13;7.40;;;23.10;99.90;;;;;;4754628;30;20052;-74
2023/09/07 08:25:48;;;;;;;11.70;6.80;;;23.10;99.90;;;;;;4738635;30;20059;-74
2023/09/07 08:28:15;;;;;;;11.55;6.80;;;23.10;99.90;;;;;;4738494;30;20060;-74
2023/09/07 08:30:41;;;;;;;9.80;6.80;;;23.20;99.90;;;;;;4738814;30;20066;-73
2023/09/07 08:33:08;;;;;;;11.10;7.10;;;23.30;99.90;;;;;;4738725;30;20048;-74
2023/09/07 08:35:35;;;;;;;11.13;7.03;;;23.40;99.90;;;;;;4754431;30;20135;-73
2023/09/07 08:38:04;;;;;;;8.30;6.35;;;23.40;99.90;;;;;;4738595;30;20527;-73
2023/09/07 08:40:32;;;;;;;10.52;6.35;;;23.50;99.90;;;;;;4738296;30;20056;-74
2023/09/07 08:43:02;;;;;;;9.95;7.60;;;23.60;99.90;;;;;;4738608;30;20060;-74
2023/09/07 08:45:29;;;;;;;9.27;6.55;;;23.70;99.90;;;;;;4738371;30;20447;-74
2023/09/07 08:47:56;;;;;;;12.95;6.65;;;23.80;99.90;;;;;;4738288;30;20105;-74
2023/09/07 08:50:23;;;;;;;8.52;7.03;;;23.80;99.90;;;;;;4753991;30;20088;-74
2023/09/07 08:52:52;;;;;;;10.48;6.35;;;23.90;99.90;;;;;;4738376;30;20052;-74
2023/09/07 08:55:19;;;;;;;9.95;6.20;;;24.00;99.90;;;;;;4754030;30;20052;-74
2023/09/07 08:57:45;;;;;;;11.77;6.85;;;24.00;99.90;;;;;;4738274;30;20106;-74
2023/09/07 09:00:16;;;;;;;9.38;7.00;;;24.10;99.90;;;;;;4737947;30;20052;-74
2023/09/07 09:02:42;;;;;;;9.68;7.07;;;24.10;99.90;;;;;;4738423;30;20060;-74
2023/09/07 09:05:14;;;;;;;9.57;6.28;;;24.20;99.90;;;;;;4738260;30;20090;-74
2023/09/07 09:07:39;;;;;;;9.33;6.23;;;24.30;99.90;;;;;;4753856;30;20083;-74
2023/09/07 09:10:09;;;;;;;11.32;7.32;;;24.40;99.90;;;;;;4737871;30;20493;-74
2023/09/07 09:12:34;;;;;;;11.05;6.78;;;24.50;99.90;;;;;;4754010;30;20063;-75
2023/09/07 09:15:03;;;;;;;13.50;7.32;;;24.50;99.90;;;;;;4753632;30;20044;-74
2023/09/07 09:17:29;;;;;;;10.40;7.43;;;24.50;99.90;;;;;;4753825;30;20048;-74
2023/09/07 09:19:55;;;;;;;16.27;7.78;;;24.60;99.90;;;;;;4737880;30;20052;-74
2023/09/07 09:22:21;;;;;;;11.88;6.65;;;24.60;99.90;;;;;;4753523;30;20126;-74
2023/09/07 09:24:50;;;;;;;11.35;7.30;;;24.70;99.90;;;;;;4753738;30;20056;-74
2023/09/07 09:27:17;;;;;;;18.73;7.20;;;24.80;99.90;;;;;;4753675;30;20058;-74
2023/09/07 09:29:45;;;;;;;11.68;7.38;;;24.90;99.90;;;;;;4753629;30;20052;-74
2023/09/07 09:32:14;;;;;;;9.75;6.82;;;25.00;99.90;;;;;;4737453;30;20056;-74
2023/09/07 09:34:41;;;;;;;10.13;6.63;;;25.00;99.90;;;;;;4737731;30;20059;-74
2023/09/07 09:37:14;;;;;;;10.38;7.20;;;25.10;99.90;;;;;;4737356;30;20559;-74
2023/09/07 09:39:43;;;;;;;9.25;7.13;;;25.20;99.90;;;;;;4737471;30;20059;-74
2023/09/07 09:42:10;;;;;;;12.30;6.88;;;25.20;99.90;;;;;;4737452;30;20546;-74
2023/09/07 09:44:37;;;;;;;9.80;6.95;;;25.30;99.90;;;;;;4753541;30;20123;-74
2023/09/07 09:47:03;;;;;;;17.58;9.13;;;25.30;99.90;;;;;;4737226;30;20056;-74
2023/09/07 09:49:32;;;;;;;13.20;7.90;;;25.40;99.90;;;;;;4753218;30;20054;-74
2023/09/07 09:51:58;;;;;;;9.25;6.75;;;25.50;99.90;;;;;;4753180;30;20052;-74
2023/09/07 09:54:26;;;;;;;11.27;6.80;;;25.60;99.90;;;;;;4753178;30;20088;-74
2023/09/07 09:56:54;;;;;;;11.85;7.30;;;25.60;99.90;;;;;;4737403;30;20094;-74
2023/09/07 09:59:22;;;;;;;12.00;7.82;;;25.70;99.90;;;;;;4752912;30;20048;-74
2023/09/07 10:01:50;;;;;;;10.20;7.47;;;25.70;99.90;;;;;;4737303;30;20089;-74
2023/09/07 10:04:18;;;;;;;9.82;7.15;;;25.70;99.90;;;;;;4736958;30;20052;-76
2023/09/07 10:07:01;;;;;;;11.23;7.50;;;25.80;99.90;;;;;;4736977;30;20107;-73
2023/09/07 10:09:32;;;;;;;10.25;7.15;;;25.90;99.90;;;;;;4736877;30;20055;-73
2023/09/07 10:12:00;;;;;;;11.35;7.25;;;26.00;99.90;;;;;;4736901;30;20064;-73
2023/09/07 10:14:26;;;;;;;10.10;6.63;;;26.00;99.90;;;;;;4752683;30;20048;-73
2023/09/07 10:16:55;;;;;;;13.57;6.78;;;26.20;99.90;;;;;;4752696;30;20466;-73
2023/09/07 10:19:22;;;;;;;9.15;6.82;;;26.20;99.90;;;;;;4736821;30;20136;-73
2023/09/07 10:21:49;;;;;;;8.80;6.32;;;26.30;99.90;;;;;;4752577;30;20052;-73
2023/09/07 10:24:28;;;;;;;10.48;7.25;;;26.30;99.90;;;;;;4728526;30;20040;-75
2023/09/07 10:27:08;;;;;;;9.10;6.28;;;26.40;99.90;;;;;;4721759;30;20132;-75
2023/09/07 10:29:52;;;;;;;15.15;6.68;;;26.50;99.90;;;;;;4728758;30;20558;-75
2023/09/07 10:32:18;;;;;;;8.90;7.00;;;26.60;99.90;;;;;;4732546;30;20113;-74
2023/09/07 10:34:43;;;;;;;15.13;11.77;;;26.70;99.90;;;;;;4732780;30;20060;-74
2023/09/07 10:37:12;;;;;;;11.45;7.18;;;26.80;99.90;;;;;;4732720;30;20052;-75
2023/09/07 10:39:45;;;;;;;10.98;6.68;;;26.90;99.90;;;;;;4732292;30;20052;-75
2023/09/07 10:42:24;;;;;;;9.93;6.72;;;27.00;99.90;;;;;;4732565;30;20053;-75
2023/09/07 10:44:50;;;;;;;8.55;6.90;;;27.10;99.90;;;;;;4732079;30;20064;-75
2023/09/07 10:47:16;;;;;;;11.27;6.80;;;27.20;99.90;;;;;;4748318;30;20516;-75
2023/09/07 10:49:42;;;;;;;10.52;6.82;;;27.30;99.90;;;;;;4733328;30;20060;-75
2023/09/07 10:52:08;;;;;;;8.80;7.07;;;27.30;99.90;;;;;;4748283;30;20060;-75
2023/09/07 10:54:34;;;;;;;8.13;6.95;;;27.40;99.90;;;;;;4731959;30;20555;-75
2023/09/07 10:57:08;;;;;;;9.10;7.03;;;27.40;99.90;;;;;;4749098;30;20076;-75
2023/09/07 10:59:34;;;;;;;10.60;6.80;;;27.50;99.90;;;;;;4748989;30;20052;-75
2023/09/07 11:02:06;;;;;;;10.45;7.38;;;27.60;99.90;;;;;;4732352;30;20053;-75
2023/09/07 11:04:32;;;;;;;13.07;7.57;;;27.70;99.90;;;;;;4731930;30;20050;-75
2023/09/07 11:06:57;;;;;;;7.85;6.88;;;27.70;99.90;;;;;;4748223;30;20056;-75
2023/09/07 11:09:25;;;;;;;10.40;7.45;;;27.90;99.90;;;;;;4732997;30;20063;-76
2023/09/07 11:11:51;;;;;;;12.23;6.40;;;28.00;99.90;;;;;;4732267;30;20056;-75
2023/09/07 11:14:16;;;;;;;10.95;6.88;;;28.10;99.90;;;;;;4731532;30;20064;-75
2023/09/07 11:16:43;;;;;;;10.98;6.75;;;28.10;99.90;;;;;;4732922;30;20059;-76
2023/09/07 11:19:09;;;;;;;10.55;6.30;;;28.20;99.90;;;;;;4732496;30;20056;-72
2023/09/07 11:21:35;;;;;;;8.27;6.90;;;28.20;99.90;;;;;;4731939;30;20064;-75
2023/09/07 11:24:04;;;;;;;10.27;6.95;;;28.20;99.90;;;;;;4732412;30;20144;-74
2023/09/07 11:26:41;;;;;;;10.75;7.93;;;28.20;99.90;;;;;;4732626;30;20086;-75
2023/09/07 11:29:06;;;;;;;10.10;6.97;;;28.20;99.90;;;;;;4734530;30;20087;-78
2023/09/07 11:31:32;;;;;;;10.45;7.43;;;28.30;99.90;;;;;;4752156;30;20092;-73
2023/09/07 11:33:57;;;;;;;10.60;7.20;;;28.30;99.90;;;;;;4752151;30;20103;-74
2023/09/07 11:36:24;;;;;;;9.70;6.65;;;28.40;99.90;;;;;;4735836;30;20143;-74
2023/09/07 11:38:52;;;;;;;12.32;6.88;;;28.60;99.90;;;;;;4737583;30;20486;-73
2023/09/07 11:41:18;;;;;;;8.85;7.03;;;28.40;99.90;;;;;;4739390;30;20082;-73
2023/09/07 11:43:45;;;;;;;9.52;6.45;;;28.40;99.90;;;;;;4739424;30;20052;-75
2023/09/07 11:46:10;;;;;;;10.30;7.32;;;28.60;99.90;;;;;;4739432;30;20102;-73
2023/09/07 11:48:39;;;;;;;9.80;7.07;;;28.60;99.90;;;;;;4739255;30;20079;-74
2023/09/07 11:51:04;;;;;;;9.73;6.97;;;28.70;99.90;;;;;;4739060;30;20409;-74
2023/09/07 11:53:30;;;;;;;12.00;6.43;;;28.80;99.90;;;;;;4736255;30;20497;-74
2023/09/07 11:55:57;;;;;;;12.38;7.47;;;28.80;99.90;;;;;;4739199;30;20086;-73
2023/09/07 11:58:25;;;;;;;9.13;6.90;;;28.80;99.90;;;;;;4732718;30;20494;-73
2023/09/07 12:00:50;;;;;;;10.80;6.80;;;28.90;99.90;;;;;;4729056;30;20044;-74
2023/09/07 12:03:16;;;;;;;9.63;6.70;;;28.90;99.90;;;;;;4725361;30;20103;-73
2023/09/07 12:05:44;;;;;;;10.57;6.40;;;28.90;99.90;;;;;;4737494;30;20079;-73
2023/09/07 12:08:09;;;;;;;10.32;6.60;;;28.90;99.90;;;;;;4721381;30;20060;-73
2023/09/07 12:10:35;;;;;;;9.50;7.22;;;28.90;99.90;;;;;;4737218;30;20067;-74
2023/09/07 12:13:01;;;;;;;9.50;7.22;;;28.80;99.90;;;;;;4721589;30;20084;-74
2023/09/07 12:15:26;;;;;;;10.52;6.82;;;28.90;99.90;;;;;;4737131;30;20051;-74
2023/09/07 12:17:54;;;;;;;10.20;6.20;;;28.80;99.90;;;;;;4721272;30;20056;-74
2023/09/07 12:20:21;;;;;;;7.85;6.35;;;28.80;99.90;;;;;;4737276;30;20079;-74
2023/09/07 12:22:46;;;;;;;9.65;5.88;;;29.00;99.90;;;;;;4721140;30;20064;-74
2023/09/07 12:25:13;;;;;;;9.10;6.20;;;29.00;99.90;;;;;;4721443;30;20052;-73
2023/09/07 12:27:38;;;;;;;8.25;6.25;;;29.00;99.90;;;;;;4721048;30;20059;-75
2023/09/07 12:30:08;;;;;;;9.45;6.20;;;28.90;99.90;;;;;;4721347;30;20052;-75
2023/09/07 12:32:34;;;;;;;10.52;5.90;;;28.80;99.90;;;;;;4721394;30;20061;-74
2023/09/07 12:34:59;;;;;;;6.82;5.35;;;29.00;99.90;;;;;;4737133;30;20106;-74